Time;durP1;ratioP1;P1;durP2;ratioP2;P2;SDS_P1;SDS_P2;PMS_P1;PMS_P2;Temp;Humidity;BMP_temperature;BMP_pressure;BME280_temperature;BME280_humidity;BME280_pressure;Samples;Min_cycle;Max_cycle;Signal;HPM_P1;HPM_P2
2022/04/06 00:01:57;;;;;;;0.70;0.70;;;;;;;-0.49;93.00;97079.91;4823698;29;20062;-80
2022/04/06 00:04:24;;;;;;;0.70;0.70;;;;;;;-0.53;92.96;97074.25;4840830;29;20491;-80
2022/04/06 00:06:53;;;;;;;0.55;0.55;;;;;;;-0.52;93.03;97081.16;4840660;29;20046;-80
2022/04/06 00:09:22;;;;;;;0.52;0.52;;;;;;;-0.52;92.96;97080.34;4840666;29;20054;-80
2022/04/06 00:11:49;;;;;;;0.70;0.70;;;;;;;-0.54;93.21;97082.41;4853348;29;20058;-79
2022/04/06 00:14:17;;;;;;;0.60;0.60;;;;;;;-0.55;93.37;97078.97;4840432;29;20076;-80
2022/04/06 00:16:44;;;;;;;0.50;0.50;;;;;;;-0.50;93.39;97091.53;4839168;29;20471;-79
2022/04/06 00:19:12;;;;;;;0.52;0.52;;;;;;;-0.48;93.34;97078.88;4840504;29;20296;-79
2022/04/06 00:21:39;;;;;;;0.60;0.60;;;;;;;-0.51;93.19;97092.56;4840675;29;20064;-78
2022/04/06 00:24:07;;;;;;;0.52;0.52;;;;;;;-0.51;93.07;97097.84;4840853;29;20394;-79
2022/04/06 00:26:35;;;;;;;0.60;0.60;;;;;;;-0.53;93.01;97095.44;4841250;29;20161;-80
2022/04/06 00:29:03;;;;;;;0.60;0.60;;;;;;;-0.52;93.27;97102.34;4855063;29;20057;-80
2022/04/06 00:31:31;;;;;;;0.57;0.57;;;;;;;-0.48;92.92;97100.91;4839584;29;20062;-79
2022/04/06 00:33:58;;;;;;;0.60;0.60;;;;;;;-0.44;92.76;97106.56;4825243;29;20526;-80
2022/04/06 00:36:27;;;;;;;0.50;0.50;;;;;;;-0.44;92.64;97102.06;4824659;29;20080;-78
2022/04/06 00:38:55;;;;;;;0.65;0.65;;;;;;;-0.43;92.62;97102.88;4830679;29;20062;-80
2022/04/06 00:41:22;;;;;;;0.70;0.70;;;;;;;-0.42;92.57;97114.28;4821335;29;20053;-79
2022/04/06 00:44:12;;;;;;;0.70;0.70;;;;;;;-0.44;92.33;97117.97;4821962;29;20054;-78
2022/04/06 00:46:40;;;;;;;0.80;0.80;;;;;;;-0.42;92.22;97104.50;4825006;29;20123;-79
2022/04/06 00:49:11;;;;;;;0.50;0.50;;;;;;;-0.38;92.06;97112.81;4824507;29;20519;-79
2022/04/06 00:51:48;;;;;;;0.68;0.68;;;;;;;-0.41;92.07;97115.91;4826339;29;20084;-78
2022/04/06 00:54:18;;;;;;;0.75;0.75;;;;;;;-0.41;91.96;97111.41;4840019;29;20110;-79
2022/04/06 00:56:46;;;;;;;0.73;0.73;;;;;;;-0.35;91.64;97123.78;4825481;29;20430;-79
2022/04/06 00:59:17;;;;;;;0.73;0.73;;;;;;;-0.34;91.56;97111.34;4839788;29;20077;-78
2022/04/06 01:01:48;;;;;;;0.60;0.60;;;;;;;-0.31;91.56;97110.91;4826381;29;20519;-78
2022/04/06 01:04:17;;;;;;;0.70;0.70;;;;;;;-0.32;91.25;97114.59;4826218;29;20042;-79
2022/04/06 01:06:48;;;;;;;0.55;0.55;;;;;;;-0.31;91.05;97113.56;4826279;29;20060;-79
2022/04/06 01:09:20;;;;;;;0.50;0.50;;;;;;;-0.30;90.97;97118.66;4826073;29;20518;-78
2022/04/06 01:11:48;;;;;;;0.60;0.60;;;;;;;-0.27;90.71;97117.38;4825367;29;20058;-79
2022/04/06 01:14:18;;;;;;;0.65;0.65;;;;;;;-0.28;90.75;97123.69;4826381;29;20089;-78
2022/04/06 01:16:59;;;;;;;0.60;0.60;;;;;;;-0.30;90.79;97117.84;4839602;29;20058;-78
2022/04/06 01:19:38;;;;;;;0.70;0.70;;;;;;;-0.31;90.62;97132.09;4825944;29;20054;-79
2022/04/06 01:22:10;;;;;;;0.50;0.50;;;;;;;-0.32;90.49;97130.50;4824907;29;20435;-80
2022/04/06 01:24:38;;;;;;;0.60;0.60;;;;;;;-0.34;90.64;97127.25;4823177;29;20511;-78
2022/04/06 01:27:06;;;;;;;0.60;0.60;;;;;;;-0.33;90.47;97126.22;4824430;29;20050;-78
2022/04/06 01:29:33;;;;;;;0.50;0.50;;;;;;;-0.29;90.47;97138.00;4825546;29;20620;-79
2022/04/06 01:32:20;;;;;;;0.50;0.50;;;;;;;-0.30;90.41;97128.44;4824891;29;20081;-78
2022/04/06 01:34:50;;;;;;;0.70;0.70;;;;;;;-0.34;90.04;97136.00;4824784;29;20085;-80
2022/04/06 01:37:20;;;;;;;0.70;0.70;;;;;;;-0.34;90.21;97135.19;4837905;29;20062;-78
2022/04/06 01:39:49;;;;;;;0.50;0.50;;;;;;;-0.31;90.03;97134.75;4823347;29;20046;-78
2022/04/06 01:42:18;;;;;;;0.50;0.50;;;;;;;-0.30;89.69;97139.84;4838195;29;20062;-79
2022/04/06 01:44:46;;;;;;;0.60;0.60;;;;;;;-0.32;89.54;97155.16;4823436;29;20058;-77
2022/04/06 01:47:15;;;;;;;0.70;0.70;;;;;;;-0.28;89.46;97150.22;4823759;29;20492;-79
2022/04/06 01:52:29;;;;;;;0.60;0.60;;;;;;;-0.30;89.25;97149.66;4823223;29;20156;-78
2022/04/06 01:55:01;;;;;;;0.45;0.45;;;;;;;-0.29;88.82;97151.25;4823956;29;20154;-78
2022/04/06 01:57:30;;;;;;;0.70;0.70;;;;;;;-0.30;89.06;97154.94;4822726;29;20051;-78
2022/04/06 01:59:58;;;;;;;0.68;0.68;;;;;;;-0.33;88.93;97156.19;4837422;29;20379;-78
2022/04/06 02:02:27;;;;;;;0.70;0.70;;;;;;;-0.39;89.33;97166.88;4837710;29;20081;-78
2022/04/06 02:04:54;;;;;;;0.70;0.70;;;;;;;-0.44;89.64;97168.31;4822244;29;20058;-79
2022/04/06 02:07:23;;;;;;;0.65;0.65;;;;;;;-0.47;89.72;97167.94;4824304;29;20058;-77
2022/04/06 02:09:50;;;;;;;0.70;0.70;;;;;;;-0.47;89.92;97178.56;4823661;29;20061;-79
2022/04/06 02:12:18;;;;;;;0.70;0.70;;;;;;;-0.52;89.57;97181.06;4823762;29;20062;-78
2022/04/06 02:14:45;;;;;;;0.50;0.50;;;;;;;-0.62;89.79;97184.19;4825294;29;20058;-79
2022/04/06 02:17:12;;;;;;;0.63;0.63;;;;;;;-0.67;89.24;97191.97;4824554;29;20071;-79
2022/04/06 02:19:42;;;;;;;0.60;0.60;;;;;;;-0.69;88.68;97194.03;4823777;29;20522;-79
2022/04/06 02:22:09;;;;;;;0.60;0.60;;;;;;;-0.68;87.59;97203.63;4825367;29;20047;-79
2022/04/06 02:24:37;;;;;;;0.60;0.60;;;;;;;-0.66;86.86;97205.03;4825168;29;20161;-80
2022/04/06 02:27:07;;;;;;;0.60;0.60;;;;;;;-0.69;86.39;97215.22;4827176;29;20054;-78
2022/04/06 02:29:39;;;;;;;0.65;0.65;;;;;;;-0.72;86.61;97205.06;4825523;29;20125;-79
2022/04/06 02:32:08;;;;;;;0.60;0.60;;;;;;;-0.78;86.78;97213.88;4823339;29;20118;-77
2022/04/06 02:34:37;;;;;;;0.60;0.60;;;;;;;-0.76;86.83;97228.53;4825994;29;20287;-78
2022/04/06 02:37:08;;;;;;;0.60;0.60;;;;;;;-0.76;86.75;97225.06;4825910;29;20058;-78
2022/04/06 02:39:35;;;;;;;0.70;0.70;;;;;;;-0.78;86.55;97235.09;4839866;29;20463;-78
2022/04/06 02:42:02;;;;;;;0.50;0.50;;;;;;;-0.82;85.99;97231.22;4826871;29;20500;-79
2022/04/06 02:44:30;;;;;;;0.52;0.52;;;;;;;-0.86;85.87;97236.16;4824402;29;20111;-79
2022/04/06 02:46:58;;;;;;;0.60;0.60;;;;;;;-0.82;85.22;97242.63;4826136;29;20106;-78
2022/04/06 02:49:25;;;;;;;0.70;0.70;;;;;;;-0.93;85.52;97248.63;4825968;29;20518;-79
2022/04/06 02:51:57;;;;;;;0.43;0.43;;;;;;;-0.91;85.37;97252.69;4825205;29;20086;-79
2022/04/06 02:54:25;;;;;;;0.50;0.50;;;;;;;-0.80;83.39;97251.19;4824900;29;20067;-79
2022/04/06 02:56:52;;;;;;;0.50;0.50;;;;;;;-0.76;81.09;97262.13;4825268;29;20058;-79
2022/04/06 02:59:19;;;;;;;0.50;0.50;;;;;;;-0.80;79.47;97272.38;4838714;29;20076;-80
2022/04/06 03:01:46;;;;;;;0.50;0.50;;;;;;;-0.79;77.57;97279.28;4823059;29;20050;-80
2022/04/06 03:04:13;;;;;;;0.52;0.52;;;;;;;-0.80;77.00;97282.16;4824670;29;20062;-79
2022/04/06 03:06:41;;;;;;;0.68;0.68;;;;;;;-0.90;77.28;97293.22;4824747;29;20137;-78
2022/04/06 03:09:08;;;;;;;0.50;0.50;;;;;;;-0.92;76.96;97289.97;4823797;29;20058;-80
2022/04/06 03:11:36;;;;;;;0.50;0.50;;;;;;;-0.96;76.76;97281.66;4824116;29;20114;-79
2022/04/06 03:14:03;;;;;;;0.50;0.50;;;;;;;-1.00;76.03;97300.81;4824490;29;20106;-80
2022/04/06 03:16:30;;;;;;;0.43;0.43;;;;;;;-1.10;76.83;97301.25;4823644;29;20477;-80
2022/04/06 03:18:57;;;;;;;0.50;0.50;;;;;;;-1.12;76.87;97312.06;4823334;29;20055;-79
2022/04/06 03:21:24;;;;;;;0.65;0.65;;;;;;;-1.10;76.85;97314.50;4824361;29;20055;-80
2022/04/06 03:23:51;;;;;;;0.50;0.50;;;;;;;-1.13;76.43;97322.88;4824032;29;20067;-78
2022/04/06 03:26:18;;;;;;;0.60;0.60;;;;;;;-1.10;74.93;97320.59;4823400;29;20526;-79
2022/04/06 03:28:50;;;;;;;0.40;0.40;;;;;;;-1.16;74.31;97324.09;4824903;29;20054;-78
2022/04/06 03:31:17;;;;;;;0.47;0.47;;;;;;;-1.18;74.16;97346.53;4824454;29;20058;-79
2022/04/06 03:33:44;;;;;;;0.40;0.40;;;;;;;-1.24;74.20;97332.28;4824486;29;20058;-79
2022/04/06 03:36:16;;;;;;;0.63;0.63;;;;;;;-1.31;73.82;97348.19;4824071;29;20520;-78
2022/04/06 03:38:43;;;;;;;0.50;0.50;;;;;;;-1.33;72.96;97342.28;4824697;29;20122;-78
2022/04/06 03:41:10;;;;;;;0.68;0.68;;;;;;;-1.34;72.23;97358.41;4823611;29;20149;-78
2022/04/06 03:43:37;;;;;;;0.60;0.60;;;;;;;-1.38;72.19;97363.28;4823614;29;20181;-78
2022/04/06 03:46:04;;;;;;;0.50;0.50;;;;;;;-1.37;71.78;97367.56;4824054;29;20050;-79
2022/04/06 03:48:32;;;;;;;0.52;0.52;;;;;;;-1.43;72.38;97359.63;4822907;29;20146;-79
2022/04/06 03:51:00;;;;;;;0.60;0.60;;;;;;;-1.40;71.32;97360.03;4821725;29;20050;-78
2022/04/06 03:53:27;;;;;;;0.50;0.50;;;;;;;-1.36;71.44;97369.19;4822037;29;20141;-78
2022/04/06 03:55:54;;;;;;;0.60;0.60;;;;;;;-1.36;71.34;97363.88;4823021;29;20054;-78
2022/04/06 03:58:21;;;;;;;0.52;0.52;;;;;;;-1.37;70.98;97386.09;4822892;29;20058;-79
2022/04/06 04:00:51;;;;;;;0.57;0.57;;;;;;;-1.41;70.54;97374.28;4822479;29;20103;-77
2022/04/06 04:03:21;;;;;;;0.70;0.70;;;;;;;-1.48;70.84;97376.13;4822591;29;20058;-79
2022/04/06 04:05:48;;;;;;;0.57;0.57;;;;;;;-1.49;71.05;97374.50;4836562;29;20055;-78
2022/04/06 04:08:15;;;;;;;0.60;0.60;;;;;;;-1.55;71.50;97380.63;4822584;29;20066;-78
2022/04/06 04:10:42;;;;;;;0.40;0.40;;;;;;;-1.58;71.57;97386.31;4822022;29;20085;-79
2022/04/06 04:13:11;;;;;;;0.80;0.80;;;;;;;-1.68;72.21;97393.88;4821763;29;20106;-79
2022/04/06 04:15:38;;;;;;;0.60;0.60;;;;;;;-1.64;72.75;97400.38;4822666;29;20054;-79
2022/04/06 04:18:08;;;;;;;0.60;0.60;;;;;;;-1.57;72.59;97390.59;4835936;29;20058;-80
2022/04/06 04:20:35;;;;;;;0.60;0.60;;;;;;;-1.52;72.57;97401.38;4835458;29;20058;-79
2022/04/06 04:23:03;;;;;;;0.65;0.65;;;;;;;-1.37;72.15;97404.63;4822187;29;20061;-79
2022/04/06 04:25:30;;;;;;;0.57;0.57;;;;;;;-1.24;71.90;97413.53;4821950;29;20093;-81
2022/04/06 04:27:57;;;;;;;0.55;0.55;;;;;;;-1.18;72.00;97410.06;4835628;29;20046;-81
2022/04/06 04:30:24;;;;;;;0.55;0.55;;;;;;;-1.17;71.96;97411.66;4822078;29;20292;-79
2022/04/06 04:32:51;;;;;;;0.70;0.70;;;;;;;-1.12;71.75;97419.81;4821683;29;20050;-80
2022/04/06 04:35:18;;;;;;;0.50;0.50;;;;;;;-1.05;71.59;97425.09;4822303;29;20070;-80
2022/04/06 04:37:45;;;;;;;0.50;0.50;;;;;;;-1.08;71.79;97426.31;4490093;29;9999942;-78
2022/04/06 04:40:12;;;;;;;0.63;0.63;;;;;;;-1.09;72.38;97435.25;4836411;29;20084;-78
2022/04/06 04:42:39;;;;;;;0.63;0.63;;;;;;;-1.12;72.36;97433.84;4835863;29;20102;-78
2022/04/06 04:45:08;;;;;;;0.70;0.70;;;;;;;-1.07;72.31;97443.81;4835113;29;20049;-78
2022/04/06 04:47:36;;;;;;;0.40;0.40;;;;;;;-1.04;72.17;97451.34;4834937;29;20177;-79
2022/04/06 04:50:06;;;;;;;0.60;0.60;;;;;;;-0.95;72.29;97449.28;4836131;29;20110;-77
2022/04/06 04:52:36;;;;;;;0.70;0.70;;;;;;;-0.93;73.53;97452.56;4839616;29;20058;-78
2022/04/06 04:55:03;;;;;;;0.65;0.65;;;;;;;-1.02;73.99;97465.19;4838294;29;20057;-79
2022/04/06 04:57:30;;;;;;;0.70;0.70;;;;;;;-1.14;73.37;97472.97;4839579;29;20045;-77
2022/04/06 05:00:00;;;;;;;0.73;0.73;;;;;;;-1.10;72.59;97483.94;4838615;29;20065;-78
2022/04/06 05:02:29;;;;;;;0.60;0.60;;;;;;;-0.95;71.65;97483.72;4839891;29;20138;-77
2022/04/06 05:05:01;;;;;;;0.55;0.55;;;;;;;-1.02;71.06;97483.72;4841089;29;20502;-79
2022/04/06 05:07:28;;;;;;;0.70;0.70;;;;;;;-1.12;70.90;97492.09;4840230;29;20114;-79
2022/04/06 05:09:55;;;;;;;0.50;0.50;;;;;;;-1.25;70.79;97496.59;4839316;29;20078;-78
2022/04/06 05:12:24;;;;;;;0.65;0.65;;;;;;;-1.40;70.44;97492.34;4836193;29;20434;-78
2022/04/06 05:15:00;;;;;;;0.47;0.47;;;;;;;-1.36;70.26;97490.91;4852904;29;20383;-78
2022/04/06 05:17:29;;;;;;;0.57;0.57;;;;;;;-1.25;68.94;97507.19;4838921;29;20054;-76
2022/04/06 05:19:56;;;;;;;0.68;0.68;;;;;;;-1.04;66.77;97508.78;4839324;29;20054;-78
2022/04/06 05:22:23;;;;;;;0.50;0.50;;;;;;;-1.00;66.09;97510.81;4839325;29;20110;-78
2022/04/06 05:24:53;;;;;;;0.57;0.57;;;;;;;-0.85;64.73;97528.31;4839360;29;20411;-78
2022/04/06 05:27:20;;;;;;;0.65;0.65;;;;;;;-0.81;64.03;97530.34;4839000;29;20050;-78
2022/04/06 05:29:47;;;;;;;0.65;0.65;;;;;;;-0.63;63.20;97519.09;4822348;29;20057;-78
2022/04/06 05:32:17;;;;;;;0.85;0.85;;;;;;;-0.70;63.54;97520.94;4841244;29;20581;-78
2022/04/06 05:34:45;;;;;;;0.70;0.70;;;;;;;-0.87;63.66;97524.03;4821819;29;20063;-77
2022/04/06 05:37:12;;;;;;;0.70;0.70;;;;;;;-0.60;63.06;97539.88;4835957;29;20464;-77
2022/04/06 05:39:39;;;;;;;0.70;0.70;;;;;;;-0.47;62.16;97542.47;4822110;29;20070;-78
2022/04/06 05:42:06;;;;;;;0.90;0.90;;;;;;;-0.23;62.08;97554.22;4820494;29;20069;-77
2022/04/06 05:44:34;;;;;;;0.70;0.70;;;;;;;-0.24;60.52;97551.75;4820141;29;20644;-77
2022/04/06 05:47:03;;;;;;;0.80;0.80;;;;;;;-0.46;60.33;97528.19;4820485;29;20084;-76
2022/04/06 05:49:32;;;;;;;0.80;0.80;;;;;;;-0.43;60.97;97542.88;4821229;29;20756;-79
2022/04/06 05:51:59;;;;;;;0.63;0.63;;;;;;;-0.49;60.31;97539.19;4840740;29;20169;-75
2022/04/06 05:54:27;;;;;;;0.80;0.80;;;;;;;-0.57;60.86;97558.00;4824551;29;20050;-78
2022/04/06 05:56:54;;;;;;;0.77;0.77;;;;;;;-0.44;60.33;97551.81;4829925;29;20050;-77
2022/04/06 05:59:24;;;;;;;0.57;0.57;;;;;;;-0.45;60.49;97558.97;4838984;29;20050;-79
2022/04/06 06:01:53;;;;;;;0.70;0.70;;;;;;;-0.43;60.34;97553.47;4840132;29;20072;-78
2022/04/06 06:04:21;;;;;;;0.77;0.77;;;;;;;-0.27;60.82;97568.09;4827842;29;20054;-78
2022/04/06 06:06:50;;;;;;;0.80;0.80;;;;;;;-0.20;60.09;97563.56;4828990;29;20379;-78
2022/04/06 06:09:21;;;;;;;0.90;0.90;;;;;;;-0.11;59.92;97578.19;4827455;29;20049;-77
2022/04/06 06:11:49;;;;;;;0.70;0.70;;;;;;;-0.02;59.66;97584.09;4830125;29;20061;-77
2022/04/06 06:14:17;;;;;;;0.60;0.60;;;;;;;-0.02;58.78;97587.56;4827199;29;20058;-77
2022/04/06 06:16:45;;;;;;;0.80;0.80;;;;;;;-0.01;58.49;97583.88;4840756;29;20126;-78
2022/04/06 06:19:12;;;;;;;0.75;0.75;;;;;;;0.04;57.66;97595.69;4832140;29;20146;-77
2022/04/06 06:21:40;;;;;;;0.80;0.80;;;;;;;0.04;57.05;97601.00;4822730;29;20081;-77
2022/04/06 06:24:07;;;;;;;0.90;0.90;;;;;;;-0.03;56.74;97593.88;4822497;29;20454;-77
2022/04/06 06:26:36;;;;;;;0.43;0.43;;;;;;;0.08;56.76;97605.69;4824492;29;20054;-77
2022/04/06 06:29:04;;;;;;;0.70;0.70;;;;;;;0.17;56.00;97611.53;4829261;29;20065;-78
2022/04/06 06:31:33;;;;;;;0.70;0.70;;;;;;;0.14;55.43;97610.13;4821506;29;20716;-78
2022/04/06 06:34:03;;;;;;;0.80;0.80;;;;;;;-0.01;55.10;97609.59;4830418;29;20062;-76
2022/04/06 06:36:31;;;;;;;1.00;1.00;;;;;;;0.15;55.30;97602.97;4823574;29;20626;-79
2022/04/06 06:39:02;;;;;;;0.60;0.60;;;;;;;0.19;54.51;97614.81;4822445;29;20054;-78
2022/04/06 06:41:30;;;;;;;0.63;0.63;;;;;;;0.27;55.07;97611.91;4821480;29;20062;-79
2022/04/06 06:44:02;;;;;;;0.70;0.70;;;;;;;0.38;54.49;97603.28;4827945;29;20057;-80
2022/04/06 06:46:31;;;;;;;0.90;0.90;;;;;;;0.53;54.86;97610.09;4826169;29;20061;-80
2022/04/06 06:49:04;;;;;;;0.70;0.70;;;;;;;0.45;54.03;97610.38;4830054;29;20053;-79
2022/04/06 06:51:33;;;;;;;1.00;1.00;;;;;;;0.39;53.53;97627.97;4837193;29;20050;-78
2022/04/06 06:54:01;;;;;;;0.90;0.90;;;;;;;0.43;53.11;97630.00;4837535;29;20053;-78
2022/04/06 06:56:28;;;;;;;0.80;0.80;;;;;;;0.55;52.01;97613.38;4833300;29;20053;-78
2022/04/06 06:58:55;;;;;;;0.80;0.80;;;;;;;0.66;52.01;97633.94;4827209;29;20084;-81
2022/04/06 07:01:22;;;;;;;0.65;0.65;;;;;;;0.67;51.49;97626.78;4821385;29;20537;-80
2022/04/06 07:03:50;;;;;;;0.70;0.70;;;;;;;0.46;50.79;97615.47;4826926;29;20522;-81
2022/04/06 07:06:20;;;;;;;0.65;0.65;;;;;;;0.48;49.71;97637.31;4820236;29;20081;-78
2022/04/06 07:08:48;;;;;;;0.70;0.70;;;;;;;0.51;50.14;97625.47;4824940;29;20145;-81
2022/04/06 07:11:18;;;;;;;0.63;0.63;;;;;;;0.54;50.73;97646.25;4828320;29;20065;-80
2022/04/06 07:13:45;;;;;;;0.85;0.85;;;;;;;0.57;51.10;97625.41;4821470;29;20068;-79
2022/04/06 07:16:15;;;;;;;0.70;0.70;;;;;;;0.73;51.06;97642.66;4822377;29;20057;-81
2022/04/06 07:18:49;;;;;;;0.70;0.70;;;;;;;0.86;50.77;97633.78;4844806;29;20456;-80
2022/04/06 07:21:17;;;;;;;0.80;0.80;;;;;;;0.99;49.73;97628.38;4841326;29;20145;-82
2022/04/06 07:23:46;;;;;;;1.00;1.00;;;;;;;1.01;49.52;97647.59;4841699;29;20115;-78
2022/04/06 07:26:17;;;;;;;0.80;0.80;;;;;;;1.01;49.35;97641.44;4835905;29;20142;-80
2022/04/06 07:28:47;;;;;;;0.80;0.80;;;;;;;1.16;47.42;97654.41;4840031;29;20391;-81
2022/04/06 07:31:15;;;;;;;0.80;0.80;;;;;;;1.28;46.49;97655.31;4833429;29;20103;-81
2022/04/06 07:33:44;;;;;;;0.93;0.93;;;;;;;1.37;46.32;97653.19;4826529;29;20058;-80
2022/04/06 07:36:14;;;;;;;0.90;0.90;;;;;;;1.37;46.33;97646.06;4819968;29;20503;-80
2022/04/06 07:38:41;;;;;;;0.90;0.90;;;;;;;1.61;46.94;97651.53;4823184;29;20073;-79
2022/04/06 07:41:09;;;;;;;0.82;0.82;;;;;;;1.74;47.16;97646.09;4851300;29;20073;-80
2022/04/06 07:43:36;;;;;;;1.10;1.10;;;;;;;1.93;45.85;97647.72;4838151;29;20078;-79
2022/04/06 07:46:03;;;;;;;0.90;0.90;;;;;;;1.94;44.65;97646.69;4828331;29;20435;-79
2022/04/06 07:48:30;;;;;;;0.95;0.95;;;;;;;2.10;44.52;97639.97;4826524;29;20058;-79
2022/04/06 07:50:58;;;;;;;1.02;1.02;;;;;;;2.16;44.33;97652.38;4833601;29;20518;-80
2022/04/06 07:53:28;;;;;;;1.00;1.00;;;;;;;2.16;43.51;97649.69;4827688;29;20183;-81
2022/04/06 07:55:55;;;;;;;1.00;1.00;;;;;;;2.10;41.69;97655.94;4833626;29;20064;-80
2022/04/06 07:58:23;;;;;;;1.02;1.02;;;;;;;2.12;40.45;97650.38;4837610;29;20046;-80
2022/04/06 08:00:51;;;;;;;0.90;0.90;;;;;;;2.25;40.37;97636.06;4825971;29;20533;-80
2022/04/06 08:03:21;;;;;;;0.95;0.95;;;;;;;2.31;39.89;97651.97;4833985;29;20053;-81
2022/04/06 08:05:50;;;;;;;0.80;0.80;;;;;;;2.42;39.59;97644.28;4837144;29;20540;-80
2022/04/06 08:08:17;;;;;;;1.00;1.00;;;;;;;2.60;40.20;97657.53;4835896;29;20081;-79
2022/04/06 08:10:44;;;;;;;1.10;1.10;;;;;;;2.85;40.27;97667.25;4826441;29;20110;-80
2022/04/06 08:13:14;;;;;;;1.10;1.10;;;;;;;3.15;40.06;97654.66;4813019;29;20062;-81
2022/04/06 08:15:41;;;;;;;1.02;1.02;;;;;;;3.55;39.96;97650.53;4817349;29;22303;-79
2022/04/06 08:18:11;;;;;;;1.10;1.10;;;;;;;3.56;40.00;97654.81;4817871;29;20050;-80
2022/04/06 08:20:40;;;;;;;1.00;1.00;;;;;;;3.51;39.04;97647.50;4814586;29;20050;-79
2022/04/06 08:23:08;;;;;;;1.15;1.15;;;;;;;3.65;38.21;97648.91;4809068;29;20494;-81
2022/04/06 08:25:35;;;;;;;0.98;0.98;;;;;;;3.73;37.99;97646.94;4804291;29;20061;-80
2022/04/06 08:28:05;;;;;;;0.80;0.80;;;;;;;3.96;37.76;97659.44;4820320;29;20058;-81
2022/04/06 08:30:39;;;;;;;1.00;1.00;;;;;;;4.43;36.80;97664.63;4820401;29;20515;-81
2022/04/06 08:33:09;;;;;;;1.20;1.20;;;;;;;4.45;36.45;97665.22;4821496;29;20058;-81
2022/04/06 08:35:40;;;;;;;1.15;1.10;;;;;;;4.63;36.44;97654.34;4820132;29;20065;-81
2022/04/06 08:38:10;;;;;;;1.00;1.00;;;;;;;4.99;35.59;97652.31;4820007;29;20069;-81
2022/04/06 08:40:38;;;;;;;0.90;0.90;;;;;;;5.00;36.02;97661.97;4820026;29;20054;-80
2022/04/06 08:43:05;;;;;;;1.30;1.20;;;;;;;5.16;36.19;97660.34;4804598;29;20051;-81
2022/04/06 08:45:33;;;;;;;1.10;1.10;;;;;;;5.75;34.66;97654.56;4822835;29;20111;-81
2022/04/06 08:48:01;;;;;;;1.10;1.10;;;;;;;5.99;33.79;97663.22;4822659;29;20054;-81
2022/04/06 08:50:29;;;;;;;0.90;0.90;;;;;;;6.33;33.42;97657.75;4806021;29;20473;-81
2022/04/06 08:52:57;;;;;;;1.00;1.00;;;;;;;5.79;31.76;97683.25;4820800;29;20059;-80
2022/04/06 08:55:28;;;;;;;1.00;1.00;;;;;;;5.34;32.67;97656.63;4820886;29;20050;-81
2022/04/06 08:57:57;;;;;;;1.10;1.10;;;;;;;5.86;31.94;97654.44;4822508;29;20145;-81
2022/04/06 09:00:26;;;;;;;0.95;0.95;;;;;;;6.49;32.07;97644.28;4822503;29;20507;-81
2022/04/06 09:02:53;;;;;;;1.10;1.10;;;;;;;6.73;30.27;97647.50;4822044;29;20050;-81
2022/04/06 09:05:23;;;;;;;1.10;1.10;;;;;;;7.33;31.17;97653.66;4820992;29;20051;-80
2022/04/06 09:07:51;;;;;;;1.00;1.00;;;;;;;7.33;28.94;97669.75;4824455;29;20079;-81
2022/04/06 09:10:31;;;;;;;1.00;1.00;;;;;;;6.69;29.33;97645.56;4824911;29;20082;-81
2022/04/06 09:13:21;;;;;;;1.00;1.00;;;;;;;6.91;29.09;97642.81;4839128;29;20069;-81
2022/04/06 09:15:53;;;;;;;1.10;1.10;;;;;;;6.83;29.73;97665.53;4823954;29;20130;-81
2022/04/06 09:18:38;;;;;;;1.05;1.05;;;;;;;6.97;28.46;97655.22;4825058;29;20065;-82
2022/04/06 09:21:13;;;;;;;1.10;1.10;;;;;;;7.46;27.62;97647.03;4825790;29;20123;-83
2022/04/06 09:23:40;;;;;;;1.10;1.10;;;;;;;6.86;28.02;97643.59;4825308;29;20082;-82
2022/04/06 09:26:12;;;;;;;1.25;1.20;;;;;;;7.09;28.84;97644.31;4825355;29;20064;-81
2022/04/06 09:28:47;;;;;;;1.27;1.17;;;;;;;7.28;28.69;97644.75;4823872;29;20126;-81
2022/04/06 09:31:16;;;;;;;1.20;1.20;;;;;;;8.26;27.49;97644.28;4823498;29;20078;-81
2022/04/06 09:33:58;;;;;;;1.10;1.10;;;;;;;8.50;27.37;97644.66;4823215;29;20058;-81
2022/04/06 09:36:29;;;;;;;1.30;1.20;;;;;;;9.27;28.47;97655.59;4838586;29;20585;-81
2022/04/06 09:38:57;;;;;;;1.10;1.10;;;;;;;9.23;27.05;97666.06;4825302;29;20082;-82
2022/04/06 09:41:25;;;;;;;1.10;1.10;;;;;;;8.98;27.65;97661.47;4825021;29;20423;-81
2022/04/06 09:43:53;;;;;;;0.70;0.70;;;;;;;7.04;30.37;97655.00;4825109;29;20080;-81
2022/04/06 09:49:18;;;;;;;1.40;1.30;;;;;;;7.68;29.64;97651.50;4823430;29;20065;-82
2022/04/06 09:51:49;;;;;;;1.27;1.20;;;;;;;9.32;28.30;97661.78;4823565;29;20545;-81
2022/04/06 09:54:17;;;;;;;1.10;1.10;;;;;;;9.48;26.57;97649.09;4824165;29;20070;-79
2022/04/06 09:56:45;;;;;;;0.90;0.90;;;;;;;7.51;28.18;97644.41;4838503;29;20054;-81
2022/04/06 09:59:14;;;;;;;1.00;1.00;;;;;;;8.07;28.35;97651.19;4835485;29;20148;-81
2022/04/06 10:01:47;;;;;;;0.70;0.70;;;;;;;7.03;29.79;97658.75;4830361;29;20054;-81
2022/04/06 10:04:23;;;;;;;1.17;1.17;;;;;;;8.17;28.79;97652.03;4829732;29;20119;-79
2022/04/06 10:06:52;;;;;;;1.20;1.20;;;;;;;9.54;27.17;97634.56;4836095;29;20110;-81
2022/04/06 10:09:20;;;;;;;1.10;1.10;;;;;;;10.33;26.55;97631.41;4819905;29;20109;-81
2022/04/06 10:11:47;;;;;;;1.10;1.10;;;;;;;11.10;25.60;97639.09;4839569;29;20873;-78
2022/04/06 10:14:14;;;;;;;1.10;1.10;;;;;;;10.29;24.47;97650.03;4839633;29;20091;-79
2022/04/06 10:16:42;;;;;;;1.17;1.17;;;;;;;9.37;25.69;97646.69;4834599;29;20097;-80
2022/04/06 10:19:13;;;;;;;1.00;1.00;;;;;;;9.40;25.99;97646.97;4835495;29;20137;-80
2022/04/06 10:22:00;;;;;;;1.10;1.10;;;;;;;10.24;25.27;97631.16;4833757;29;20046;-80
2022/04/06 10:24:40;;;;;;;1.10;1.10;;;;;;;11.21;24.67;97638.72;4835639;29;20058;-80
2022/04/06 10:27:36;;;;;;;1.10;1.10;;;;;;;11.72;22.62;97656.38;4852249;29;20053;-80
2022/04/06 10:30:06;;;;;;;1.20;1.20;;;;;;;10.10;24.17;97647.13;4837093;29;20280;-80
2022/04/06 10:32:37;;;;;;;1.10;1.10;;;;;;;11.04;22.25;97657.22;4832267;29;20065;-82
2022/04/06 10:35:31;;;;;;;1.10;1.10;;;;;;;10.83;22.11;97651.13;4833883;29;20119;-81
2022/04/06 10:38:07;;;;;;;1.20;1.20;;;;;;;10.40;22.43;97648.09;4839109;29;20068;-81
2022/04/06 10:40:47;;;;;;;1.00;1.00;;;;;;;11.54;22.35;97633.59;4837357;29;20537;-79
2022/04/06 10:43:38;;;;;;;1.10;1.10;;;;;;;13.08;21.91;97631.78;4833133;29;20062;-80
2022/04/06 10:46:10;;;;;;;1.00;1.00;;;;;;;13.25;21.81;97634.78;4826293;29;20066;-80
2022/04/06 10:49:10;;;;;;;1.00;1.00;;;;;;;14.00;21.38;97639.22;4826888;29;20064;-79
2022/04/06 10:51:41;;;;;;;1.00;1.00;;;;;;;12.54;21.78;97621.16;4838362;29;20068;-79
2022/04/06 10:54:14;;;;;;;1.00;1.00;;;;;;;11.78;22.86;97627.44;4827161;29;20630;-80
2022/04/06 10:57:11;;;;;;;1.10;1.10;;;;;;;12.43;21.95;97635.94;4828277;29;20097;-79
2022/04/06 10:59:38;;;;;;;1.00;1.00;;;;;;;12.00;21.51;97641.31;4806595;29;20105;-79
2022/04/06 11:02:17;;;;;;;1.00;1.00;;;;;;;11.68;22.21;97636.44;4809164;29;20464;-80
2022/04/06 11:04:45;;;;;;;1.10;1.10;;;;;;;12.24;21.79;97630.47;4811523;29;20054;-80
2022/04/06 11:07:15;;;;;;;1.10;1.10;;;;;;;12.36;21.79;97640.88;4812558;29;20163;-80
2022/04/06 11:12:32;;;;;;;1.10;1.10;;;;;;;12.30;21.99;97631.22;4818877;29;20050;-80
2022/04/06 11:14:59;;;;;;;1.00;1.00;;;;;;;11.66;20.64;97636.72;4820680;29;20066;-81
2022/04/06 11:17:33;;;;;;;1.00;1.00;;;;;;;11.71;21.64;97633.97;4821086;29;20130;-80
2022/04/06 11:20:09;;;;;;;1.10;1.10;;;;;;;12.89;20.78;97623.69;4819848;29;20054;-80
2022/04/06 11:22:43;;;;;;;1.10;1.10;;;;;;;13.65;20.06;97627.91;4821028;29;20484;-80
2022/04/06 11:25:13;;;;;;;1.03;1.03;;;;;;;13.84;19.96;97621.59;4805618;29;20058;-79
2022/04/06 11:27:42;;;;;;;1.10;1.10;;;;;;;12.78;19.85;97633.84;4821056;29;20394;-80
2022/04/06 11:30:23;;;;;;;1.10;1.10;;;;;;;12.19;20.30;97617.00;4787067;29;20062;-79
2022/04/06 11:32:53;;;;;;;1.10;1.10;;;;;;;11.86;21.63;97624.09;4810093;29;20143;-80
2022/04/06 11:35:20;;;;;;;1.10;1.10;;;;;;;12.78;20.58;97623.00;4803975;29;20086;-79
2022/04/06 11:37:55;;;;;;;1.10;1.10;;;;;;;12.28;20.91;97611.75;4838289;29;20118;-79
2022/04/06 11:40:26;;;;;;;1.08;1.08;;;;;;;11.97;21.75;97620.22;4836263;29;20050;-80
2022/04/06 11:42:56;;;;;;;1.10;1.10;;;;;;;13.07;20.73;97603.91;4843534;29;20056;-80
2022/04/06 11:45:31;;;;;;;1.00;1.00;;;;;;;13.85;19.67;97624.03;4827528;29;20057;-80
2022/04/06 11:47:59;;;;;;;1.00;1.00;;;;;;;12.75;21.08;97604.66;4831518;29;20054;-81
2022/04/06 11:50:29;;;;;;;1.10;1.10;;;;;;;13.86;20.32;97601.22;4833672;29;20110;-81
2022/04/06 11:53:04;;;;;;;1.00;1.00;;;;;;;14.82;18.73;97623.19;4833931;29;20058;-80
2022/04/06 11:55:48;;;;;;;1.05;1.05;;;;;;;14.44;18.90;97613.38;4827704;29;20522;-80
2022/04/06 11:58:29;;;;;;;1.00;1.00;;;;;;;14.39;19.11;97613.47;4833711;29;20149;-81